sensor_id;sensor_type;location;lat;lon;timestamp;temperature;humidity
2783;DHT22;1399;47.072;15.452;2022-11-15T00:01:50;13.40;74.70
2783;DHT22;1399;47.072;15.452;2022-11-15T00:04:16;13.40;73.80
2783;DHT22;1399;47.072;15.452;2022-11-15T00:06:41;13.40;73.80
2783;DHT22;1399;47.072;15.452;2022-11-15T00:09:07;13.30;73.70
2783;DHT22;1399;47.072;15.452;2022-11-15T00:11:33;13.30;73.70
2783;DHT22;1399;47.072;15.452;2022-11-15T00:13:59;13.40;73.80
2783;DHT22;1399;47.072;15.452;2022-11-15T00:16:28;13.40;73.80
2783;DHT22;1399;47.072;15.452;2022-11-15T00:18:53;13.30;73.70
2783;DHT22;1399;47.072;15.452;2022-11-15T00:21:19;13.30;73.70
2783;DHT22;1399;47.072;15.452;2022-11-15T00:23:45;13.30;73.70
2783;DHT22;1399;47.072;15.452;2022-11-15T00:26:14;13.30;73.70
2783;DHT22;1399;47.072;15.452;2022-11-15T00:28:41;13.40;73.80
2783;DHT22;1399;47.072;15.452;2022-11-15T00:31:11;13.30;73.70
2783;DHT22;1399;47.072;15.452;2022-11-15T00:33:38;13.30;73.80
2783;DHT22;1399;47.072;15.452;2022-11-15T00:36:08;13.30;74.60
2783;DHT22;1399;47.072;15.452;2022-11-15T00:38:38;13.30;73.70
2783;DHT22;1399;47.072;15.452;2022-11-15T00:41:06;13.30;73.70
2783;DHT22;1399;47.072;15.452;2022-11-15T00:43:33;13.30;73.70
2783;DHT22;1399;47.072;15.452;2022-11-15T00:46:00;13.30;73.70
2783;DHT22;1399;47.072;15.452;2022-11-15T00:48:28;13.30;73.70
2783;DHT22;1399;47.072;15.452;2022-11-15T00:50:55;13.30;73.70
2783;DHT22;1399;47.072;15.452;2022-11-15T00:53:21;13.30;73.70
2783;DHT22;1399;47.072;15.452;2022-11-15T00:55:47;13.30;73.70
2783;DHT22;1399;47.072;15.452;2022-11-15T00:58:13;13.30;73.70
2783;DHT22;1399;47.072;15.452;2022-11-15T01:00:39;13.30;73.70
2783;DHT22;1399;47.072;15.452;2022-11-15T01:03:05;13.30;73.70
2783;DHT22;1399;47.072;15.452;2022-11-15T01:05:31;13.30;73.70
2783;DHT22;1399;47.072;15.452;2022-11-15T01:07:57;13.30;73.70
2783;DHT22;1399;47.072;15.452;2022-11-15T01:10:23;13.20;73.70
2783;DHT22;1399;47.072;15.452;2022-11-15T01:12:50;13.30;73.70
2783;DHT22;1399;47.072;15.452;2022-11-15T01:15:16;13.30;73.80
2783;DHT22;1399;47.072;15.452;2022-11-15T01:17:41;13.20;73.60
2783;DHT22;1399;47.072;15.452;2022-11-15T01:20:07;13.20;73.60
2783;DHT22;1399;47.072;15.452;2022-11-15T01:22:33;13.30;73.70
2783;DHT22;1399;47.072;15.452;2022-11-15T01:24:59;13.30;73.70
2783;DHT22;1399;47.072;15.452;2022-11-15T01:27:25;13.20;73.60
2783;DHT22;1399;47.072;15.452;2022-11-15T01:29:50;13.30;73.70
2783;DHT22;1399;47.072;15.452;2022-11-15T01:32:16;13.30;73.80
2783;DHT22;1399;47.072;15.452;2022-11-15T01:34:42;13.20;73.70
2783;DHT22;1399;47.072;15.452;2022-11-15T01:37:09;13.20;73.70
2783;DHT22;1399;47.072;15.452;2022-11-15T01:39:34;13.20;73.70
2783;DHT22;1399;47.072;15.452;2022-11-15T01:42:00;13.20;73.70
2783;DHT22;1399;47.072;15.452;2022-11-15T01:47:12;13.20;73.80
2783;DHT22;1399;47.072;15.452;2022-11-15T01:49:50;13.20;73.70
2783;DHT22;1399;47.072;15.452;2022-11-15T01:52:20;13.20;73.80
2783;DHT22;1399;47.072;15.452;2022-11-15T01:54:53;13.20;73.80
2783;DHT22;1399;47.072;15.452;2022-11-15T01:57:20;13.20;73.80
2783;DHT22;1399;47.072;15.452;2022-11-15T01:59:46;13.20;73.80
2783;DHT22;1399;47.072;15.452;2022-11-15T02:02:12;13.20;73.80
2783;DHT22;1399;47.072;15.452;2022-11-15T02:04:45;13.20;73.80
2783;DHT22;1399;47.072;15.452;2022-11-15T02:07:13;13.20;73.90
2783;DHT22;1399;47.072;15.452;2022-11-15T02:09:40;13.20;73.90
2783;DHT22;1399;47.072;15.452;2022-11-15T02:12:08;13.20;73.90
2783;DHT22;1399;47.072;15.452;2022-11-15T02:14:36;13.20;73.90
2783;DHT22;1399;47.072;15.452;2022-11-15T02:17:43;13.20;73.90
2783;DHT22;1399;47.072;15.452;2022-11-15T02:34:04;13.20;73.90
2783;DHT22;1399;47.072;15.452;2022-11-15T02:39:56;13.20;74.00
2783;DHT22;1399;47.072;15.452;2022-11-15T02:42:17;13.20;74.10
2783;DHT22;1399;47.072;15.452;2022-11-15T02:45:10;13.20;74.10
2783;DHT22;1399;47.072;15.452;2022-11-15T02:47:43;13.20;74.10
2783;DHT22;1399;47.072;15.452;2022-11-15T02:50:12;13.20;74.20
2783;DHT22;1399;47.072;15.452;2022-11-15T02:52:39;13.20;74.10
2783;DHT22;1399;47.072;15.452;2022-11-15T02:55:04;13.20;74.10
2783;DHT22;1399;47.072;15.452;2022-11-15T03:00:39;13.20;74.20
2783;DHT22;1399;47.072;15.452;2022-11-15T03:06:26;13.20;74.10
2783;DHT22;1399;47.072;15.452;2022-11-15T03:11:43;13.20;74.10
2783;DHT22;1399;47.072;15.452;2022-11-15T03:14:24;13.20;74.20
2783;DHT22;1399;47.072;15.452;2022-11-15T03:17:06;13.20;74.20
2783;DHT22;1399;47.072;15.452;2022-11-15T03:19:42;13.20;74.10
2783;DHT22;1399;47.072;15.452;2022-11-15T03:22:14;13.20;74.20
2783;DHT22;1399;47.072;15.452;2022-11-15T03:24:43;13.20;74.20
2783;DHT22;1399;47.072;15.452;2022-11-15T03:27:14;13.20;74.20
2783;DHT22;1399;47.072;15.452;2022-11-15T03:29:46;13.20;74.20
2783;DHT22;1399;47.072;15.452;2022-11-15T03:32:18;13.20;74.20
2783;DHT22;1399;47.072;15.452;2022-11-15T03:34:49;13.20;74.20
2783;DHT22;1399;47.072;15.452;2022-11-15T03:37:16;13.20;74.20
2783;DHT22;1399;47.072;15.452;2022-11-15T03:39:43;13.20;74.20
2783;DHT22;1399;47.072;15.452;2022-11-15T03:42:24;13.20;74.20
2783;DHT22;1399;47.072;15.452;2022-11-15T03:47:32;13.20;74.20
2783;DHT22;1399;47.072;15.452;2022-11-15T03:50:10;13.20;74.20
2783;DHT22;1399;47.072;15.452;2022-11-15T03:52:40;13.20;74.20
2783;DHT22;1399;47.072;15.452;2022-11-15T03:55:09;13.10;74.10
2783;DHT22;1399;47.072;15.452;2022-11-15T03:57:36;13.20;74.20
2783;DHT22;1399;47.072;15.452;2022-11-15T04:00:03;13.10;74.10
2783;DHT22;1399;47.072;15.452;2022-11-15T04:02:29;13.10;74.20
2783;DHT22;1399;47.072;15.452;2022-11-15T04:04:55;13.10;74.20
2783;DHT22;1399;47.072;15.452;2022-11-15T04:07:21;13.10;74.20
2783;DHT22;1399;47.072;15.452;2022-11-15T04:09:46;13.10;74.20
2783;DHT22;1399;47.072;15.452;2022-11-15T04:12:28;13.10;74.20
2783;DHT22;1399;47.072;15.452;2022-11-15T04:15:12;13.10;74.20
2783;DHT22;1399;47.072;15.452;2022-11-15T04:17:44;13.10;74.20
2783;DHT22;1399;47.072;15.452;2022-11-15T04:20:20;13.10;74.20
2783;DHT22;1399;47.072;15.452;2022-11-15T04:23:07;13.10;74.20
2783;DHT22;1399;47.072;15.452;2022-11-15T04:25:55;13.10;74.20
2783;DHT22;1399;47.072;15.452;2022-11-15T04:28:22;13.10;74.20
2783;DHT22;1399;47.072;15.452;2022-11-15T04:30:48;13.10;74.20
2783;DHT22;1399;47.072;15.452;2022-11-15T04:33:14;13.10;74.20
2783;DHT22;1399;47.072;15.452;2022-11-15T04:35:40;13.10;74.20
2783;DHT22;1399;47.072;15.452;2022-11-15T04:38:07;13.10;74.30
2783;DHT22;1399;47.072;15.452;2022-11-15T04:40:34;13.10;74.40
2783;DHT22;1399;47.072;15.452;2022-11-15T04:43:00;13.10;74.40
2783;DHT22;1399;47.072;15.452;2022-11-15T04:45:26;13.10;74.40
2783;DHT22;1399;47.072;15.452;2022-11-15T04:47:51;13.10;74.40
2783;DHT22;1399;47.072;15.452;2022-11-15T04:50:17;13.10;74.40
2783;DHT22;1399;47.072;15.452;2022-11-15T04:52:49;13.10;74.40
2783;DHT22;1399;47.072;15.452;2022-11-15T04:55:15;13.10;74.50
2783;DHT22;1399;47.072;15.452;2022-11-15T04:57:41;13.10;74.50
2783;DHT22;1399;47.072;15.452;2022-11-15T05:00:10;13.10;74.40
2783;DHT22;1399;47.072;15.452;2022-11-15T05:02:36;13.10;74.40
2783;DHT22;1399;47.072;15.452;2022-11-15T05:05:21;13.10;74.50
2783;DHT22;1399;47.072;15.452;2022-11-15T05:07:47;13.10;74.50
2783;DHT22;1399;47.072;15.452;2022-11-15T05:10:13;13.10;74.60
2783;DHT22;1399;47.072;15.452;2022-11-15T05:12:39;13.10;74.60
2783;DHT22;1399;47.072;15.452;2022-11-15T05:15:05;13.10;74.60
2783;DHT22;1399;47.072;15.452;2022-11-15T05:17:30;13.10;74.60
2783;DHT22;1399;47.072;15.452;2022-11-15T05:19:56;13.10;74.60
2783;DHT22;1399;47.072;15.452;2022-11-15T05:22:22;13.10;74.60
2783;DHT22;1399;47.072;15.452;2022-11-15T05:24:48;13.10;74.60
2783;DHT22;1399;47.072;15.452;2022-11-15T05:27:13;13.10;74.60
2783;DHT22;1399;47.072;15.452;2022-11-15T05:29:39;13.10;75.50
2783;DHT22;1399;47.072;15.452;2022-11-15T05:32:06;13.10;74.70
2783;DHT22;1399;47.072;15.452;2022-11-15T05:34:32;13.10;74.70
2783;DHT22;1399;47.072;15.452;2022-11-15T05:36:59;13.10;74.70
2783;DHT22;1399;47.072;15.452;2022-11-15T05:39:24;13.10;74.70
2783;DHT22;1399;47.072;15.452;2022-11-15T05:41:59;13.10;74.80
2783;DHT22;1399;47.072;15.452;2022-11-15T05:44:26;13.10;74.80
2783;DHT22;1399;47.072;15.452;2022-11-15T05:46:54;13.10;74.80
2783;DHT22;1399;47.072;15.452;2022-11-15T05:49:23;13.10;74.90
2783;DHT22;1399;47.072;15.452;2022-11-15T05:51:52;13.10;74.90
2783;DHT22;1399;47.072;15.452;2022-11-15T05:54:19;13.00;74.80
2783;DHT22;1399;47.072;15.452;2022-11-15T05:56:45;13.10;75.00
2783;DHT22;1399;47.072;15.452;2022-11-15T05:59:11;13.00;74.90
2783;DHT22;1399;47.072;15.452;2022-11-15T06:01:38;13.00;74.90
2783;DHT22;1399;47.072;15.452;2022-11-15T06:04:04;13.00;75.00
2783;DHT22;1399;47.072;15.452;2022-11-15T06:06:30;13.00;75.10
2783;DHT22;1399;47.072;15.452;2022-11-15T06:08:55;13.00;75.10
2783;DHT22;1399;47.072;15.452;2022-11-15T06:11:21;13.00;75.10
2783;DHT22;1399;47.072;15.452;2022-11-15T06:13:47;13.00;75.60
2783;DHT22;1399;47.072;15.452;2022-11-15T06:16:13;13.00;75.20
2783;DHT22;1399;47.072;15.452;2022-11-15T06:18:38;13.00;75.30
2783;DHT22;1399;47.072;15.452;2022-11-15T06:21:05;13.00;75.20
2783;DHT22;1399;47.072;15.452;2022-11-15T06:23:34;13.00;75.30
2783;DHT22;1399;47.072;15.452;2022-11-15T06:26:01;13.00;75.30
2783;DHT22;1399;47.072;15.452;2022-11-15T06:28:31;13.00;75.30
2783;DHT22;1399;47.072;15.452;2022-11-15T06:31:08;13.00;75.40
2783;DHT22;1399;47.072;15.452;2022-11-15T06:33:33;13.00;75.40
2783;DHT22;1399;47.072;15.452;2022-11-15T06:36:04;13.00;75.40
2783;DHT22;1399;47.072;15.452;2022-11-15T06:38:30;13.00;75.40
2783;DHT22;1399;47.072;15.452;2022-11-15T06:41:03;13.00;75.30
2783;DHT22;1399;47.072;15.452;2022-11-15T06:43:29;13.00;75.30
2783;DHT22;1399;47.072;15.452;2022-11-15T06:45:57;13.00;75.30
2783;DHT22;1399;47.072;15.452;2022-11-15T06:48:23;13.00;75.30
2783;DHT22;1399;47.072;15.452;2022-11-15T06:50:53;13.00;75.30
2783;DHT22;1399;47.072;15.452;2022-11-15T06:53:19;13.10;75.50
2783;DHT22;1399;47.072;15.452;2022-11-15T06:55:44;13.10;75.50
2783;DHT22;1399;47.072;15.452;2022-11-15T06:58:10;13.10;75.40
2783;DHT22;1399;47.072;15.452;2022-11-15T07:00:36;13.10;75.40
2783;DHT22;1399;47.072;15.452;2022-11-15T07:03:02;13.10;75.40
2783;DHT22;1399;47.072;15.452;2022-11-15T07:05:29;13.10;75.30
2783;DHT22;1399;47.072;15.452;2022-11-15T07:07:56;13.10;75.30
2783;DHT22;1399;47.072;15.452;2022-11-15T07:10:23;13.10;75.30
2783;DHT22;1399;47.072;15.452;2022-11-15T07:12:53;13.10;75.30
2783;DHT22;1399;47.072;15.452;2022-11-15T07:15:22;13.10;75.20
2783;DHT22;1399;47.072;15.452;2022-11-15T07:17:48;13.10;75.10
2783;DHT22;1399;47.072;15.452;2022-11-15T07:20:14;13.10;75.10
2783;DHT22;1399;47.072;15.452;2022-11-15T07:22:41;13.20;75.10
2783;DHT22;1399;47.072;15.452;2022-11-15T07:25:08;13.20;75.00
2783;DHT22;1399;47.072;15.452;2022-11-15T07:27:34;13.20;75.00
2783;DHT22;1399;47.072;15.452;2022-11-15T07:30:00;13.20;75.00
2783;DHT22;1399;47.072;15.452;2022-11-15T07:32:26;13.20;74.90
2783;DHT22;1399;47.072;15.452;2022-11-15T07:34:52;13.20;74.80
2783;DHT22;1399;47.072;15.452;2022-11-15T07:37:18;13.20;74.80
2783;DHT22;1399;47.072;15.452;2022-11-15T07:39:44;13.20;74.80
2783;DHT22;1399;47.072;15.452;2022-11-15T07:42:09;13.20;74.70
2783;DHT22;1399;47.072;15.452;2022-11-15T07:44:54;13.20;74.70
2783;DHT22;1399;47.072;15.452;2022-11-15T07:47:19;13.20;74.70
2783;DHT22;1399;47.072;15.452;2022-11-15T07:49:46;13.20;74.60
2783;DHT22;1399;47.072;15.452;2022-11-15T07:52:12;13.20;74.60
2783;DHT22;1399;47.072;15.452;2022-11-15T07:54:38;13.20;74.50
2783;DHT22;1399;47.072;15.452;2022-11-15T07:57:05;13.30;74.60
2783;DHT22;1399;47.072;15.452;2022-11-15T07:59:32;13.30;74.60
2783;DHT22;1399;47.072;15.452;2022-11-15T08:01:58;13.30;74.60
2783;DHT22;1399;47.072;15.452;2022-11-15T08:04:24;13.30;74.60
2783;DHT22;1399;47.072;15.452;2022-11-15T08:06:50;13.30;74.60
2783;DHT22;1399;47.072;15.452;2022-11-15T08:09:15;13.30;74.60
2783;DHT22;1399;47.072;15.452;2022-11-15T08:11:41;13.30;74.60
2783;DHT22;1399;47.072;15.452;2022-11-15T08:14:07;13.30;74.60
2783;DHT22;1399;47.072;15.452;2022-11-15T08:16:36;13.30;74.60
2783;DHT22;1399;47.072;15.452;2022-11-15T08:19:01;13.30;74.60
2783;DHT22;1399;47.072;15.452;2022-11-15T08:21:27;13.40;74.80
2783;DHT22;1399;47.072;15.452;2022-11-15T08:23:53;13.40;74.70
2783;DHT22;1399;47.072;15.452;2022-11-15T08:26:18;13.30;74.60
2783;DHT22;1399;47.072;15.452;2022-11-15T08:28:44;13.30;74.60
2783;DHT22;1399;47.072;15.452;2022-11-15T08:31:14;13.30;74.60
2783;DHT22;1399;47.072;15.452;2022-11-15T08:33:42;13.40;74.60
2783;DHT22;1399;47.072;15.452;2022-11-15T08:36:13;13.40;74.60
2783;DHT22;1399;47.072;15.452;2022-11-15T08:38:39;13.40;74.50
2783;DHT22;1399;47.072;15.452;2022-11-15T08:41:05;13.40;74.50
2783;DHT22;1399;47.072;15.452;2022-11-15T08:43:32;13.40;74.40
2783;DHT22;1399;47.072;15.452;2022-11-15T08:45:58;13.40;74.30
2783;DHT22;1399;47.072;15.452;2022-11-15T08:48:24;13.40;74.30
2783;DHT22;1399;47.072;15.452;2022-11-15T08:50:54;13.40;74.10
2783;DHT22;1399;47.072;15.452;2022-11-15T08:53:20;13.50;74.10
2783;DHT22;1399;47.072;15.452;2022-11-15T08:55:47;13.50;74.10
2783;DHT22;1399;47.072;15.452;2022-11-15T08:58:13;13.50;74.00
2783;DHT22;1399;47.072;15.452;2022-11-15T09:00:38;13.50;73.90
2783;DHT22;1399;47.072;15.452;2022-11-15T09:03:05;13.50;73.80
2783;DHT22;1399;47.072;15.452;2022-11-15T09:05:32;13.50;73.80
2783;DHT22;1399;47.072;15.452;2022-11-15T09:07:57;13.50;73.70
2783;DHT22;1399;47.072;15.452;2022-11-15T09:10:24;13.60;73.70
2783;DHT22;1399;47.072;15.452;2022-11-15T09:12:50;13.60;73.70
2783;DHT22;1399;47.072;15.452;2022-11-15T09:15:16;13.60;73.60
2783;DHT22;1399;47.072;15.452;2022-11-15T09:17:42;13.60;73.60
2783;DHT22;1399;47.072;15.452;2022-11-15T09:20:09;13.60;73.60
2783;DHT22;1399;47.072;15.452;2022-11-15T09:22:35;13.60;73.60
2783;DHT22;1399;47.072;15.452;2022-11-15T09:25:03;13.70;73.70
2783;DHT22;1399;47.072;15.452;2022-11-15T09:27:32;13.60;73.70
2783;DHT22;1399;47.072;15.452;2022-11-15T09:29:58;13.60;73.70
2783;DHT22;1399;47.072;15.452;2022-11-15T09:32:23;13.70;73.90
2783;DHT22;1399;47.072;15.452;2022-11-15T09:34:53;13.70;73.90
2783;DHT22;1399;47.072;15.452;2022-11-15T09:37:18;13.70;73.80
2783;DHT22;1399;47.072;15.452;2022-11-15T09:39:44;13.70;73.80
2783;DHT22;1399;47.072;15.452;2022-11-15T09:42:25;13.70;73.70
2783;DHT22;1399;47.072;15.452;2022-11-15T09:45:24;13.70;73.60
2783;DHT22;1399;47.072;15.452;2022-11-15T09:48:23;13.70;73.60
2783;DHT22;1399;47.072;15.452;2022-11-15T09:50:52;13.70;73.60
2783;DHT22;1399;47.072;15.452;2022-11-15T09:56:00;13.80;73.80
2783;DHT22;1399;47.072;15.452;2022-11-15T09:58:35;13.70;73.70
2783;DHT22;1399;47.072;15.452;2022-11-15T10:01:07;13.70;73.70
2783;DHT22;1399;47.072;15.452;2022-11-15T10:03:37;13.80;73.80
2783;DHT22;1399;47.072;15.452;2022-11-15T10:06:05;13.70;73.80
2783;DHT22;1399;47.072;15.452;2022-11-15T10:08:49;13.70;73.70
2783;DHT22;1399;47.072;15.452;2022-11-15T10:11:29;13.70;73.70
2783;DHT22;1399;47.072;15.452;2022-11-15T10:14:26;13.80;73.80
2783;DHT22;1399;47.072;15.452;2022-11-15T10:22:48;13.80;73.60
2783;DHT22;1399;47.072;15.452;2022-11-15T10:25:25;13.90;73.50
2783;DHT22;1399;47.072;15.452;2022-11-15T10:28:36;13.90;73.40
2783;DHT22;1399;47.072;15.452;2022-11-15T10:30:47;14.00;73.40
2783;DHT22;1399;47.072;15.452;2022-11-15T10:33:24;14.00;74.00
2783;DHT22;1399;47.072;15.452;2022-11-15T10:43:45;14.10;72.80
2783;DHT22;1399;47.072;15.452;2022-11-15T10:46:22;14.10;72.70
2783;DHT22;1399;47.072;15.452;2022-11-15T10:48:49;14.10;72.60
2783;DHT22;1399;47.072;15.452;2022-11-15T10:51:24;14.10;72.50
2783;DHT22;1399;47.072;15.452;2022-11-15T10:53:58;14.20;72.60
2783;DHT22;1399;47.072;15.452;2022-11-15T10:56:26;14.20;72.40
2783;DHT22;1399;47.072;15.452;2022-11-15T10:58:56;14.20;72.30
2783;DHT22;1399;47.072;15.452;2022-11-15T11:01:24;14.20;72.30
2783;DHT22;1399;47.072;15.452;2022-11-15T11:04:05;14.30;72.30
2783;DHT22;1399;47.072;15.452;2022-11-15T11:06:46;14.30;72.10
2783;DHT22;1399;47.072;15.452;2022-11-15T11:11:51;14.30;72.00
2783;DHT22;1399;47.072;15.452;2022-11-15T11:14:24;14.30;72.00
2783;DHT22;1399;47.072;15.452;2022-11-15T11:17:20;14.30;72.00
2783;DHT22;1399;47.072;15.452;2022-11-15T11:33:06;14.40;71.30
2783;DHT22;1399;47.072;15.452;2022-11-15T11:44:12;14.40;71.10
2783;DHT22;1399;47.072;15.452;2022-11-15T11:51:47;14.40;70.80
2783;DHT22;1399;47.072;15.452;2022-11-15T11:54:29;14.50;71.00
2783;DHT22;1399;47.072;15.452;2022-11-15T11:56:57;14.40;70.90
2783;DHT22;1399;47.072;15.452;2022-11-15T12:02:12;14.50;71.00
2783;DHT22;1399;47.072;15.452;2022-11-15T12:04:44;14.50;71.00
2783;DHT22;1399;47.072;15.452;2022-11-15T12:07:25;14.50;70.90
2783;DHT22;1399;47.072;15.452;2022-11-15T12:10:14;14.50;70.90
2783;DHT22;1399;47.072;15.452;2022-11-15T12:12:44;14.50;70.90
2783;DHT22;1399;47.072;15.452;2022-11-15T12:15:16;14.50;70.90
2783;DHT22;1399;47.072;15.452;2022-11-15T12:17:44;14.50;70.90
2783;DHT22;1399;47.072;15.452;2022-11-15T12:20:20;14.50;70.80
2783;DHT22;1399;47.072;15.452;2022-11-15T12:33:37;14.50;70.70
2783;DHT22;1399;47.072;15.452;2022-11-15T12:36:05;14.50;70.80
2783;DHT22;1399;47.072;15.452;2022-11-15T12:41:26;14.50;71.00
2783;DHT22;1399;47.072;15.452;2022-11-15T12:43:52;14.50;71.00
2783;DHT22;1399;47.072;15.452;2022-11-15T12:48:54;14.40;70.90
2783;DHT22;1399;47.072;15.452;2022-11-15T12:51:22;14.40;71.00
2783;DHT22;1399;47.072;15.452;2022-11-15T12:53:48;14.40;71.00
2783;DHT22;1399;47.072;15.452;2022-11-15T12:58:47;14.40;71.10
2783;DHT22;1399;47.072;15.452;2022-11-15T13:06:59;14.40;71.20
2783;DHT22;1399;47.072;15.452;2022-11-15T13:12:04;14.40;71.20
2783;DHT22;1399;47.072;15.452;2022-11-15T13:14:49;14.40;71.20
2783;DHT22;1399;47.072;15.452;2022-11-15T13:20:08;14.40;71.20
2783;DHT22;1399;47.072;15.452;2022-11-15T13:22:50;14.30;71.00
2783;DHT22;1399;47.072;15.452;2022-11-15T13:25:21;14.30;71.10
2783;DHT22;1399;47.072;15.452;2022-11-15T13:27:50;14.30;71.10
2783;DHT22;1399;47.072;15.452;2022-11-15T13:30:21;14.30;71.20
2783;DHT22;1399;47.072;15.452;2022-11-15T13:32:48;14.30;71.30
2783;DHT22;1399;47.072;15.452;2022-11-15T13:35:28;14.30;71.30
2783;DHT22;1399;47.072;15.452;2022-11-15T13:37:57;14.30;71.30
2783;DHT22;1399;47.072;15.452;2022-11-15T13:40:34;14.20;71.20
2783;DHT22;1399;47.072;15.452;2022-11-15T13:46:45;14.20;71.30
2783;DHT22;1399;47.072;15.452;2022-11-15T13:49:02;14.20;71.90
2783;DHT22;1399;47.072;15.452;2022-11-15T13:51:47;14.20;71.40
2783;DHT22;1399;47.072;15.452;2022-11-15T13:56:44;14.10;71.40
2783;DHT22;1399;47.072;15.452;2022-11-15T13:59:24;14.10;71.50
2783;DHT22;1399;47.072;15.452;2022-11-15T14:01:52;14.10;71.50
2783;DHT22;1399;47.072;15.452;2022-11-15T14:04:21;14.10;71.50
2783;DHT22;1399;47.072;15.452;2022-11-15T14:06:51;14.10;71.60
2783;DHT22;1399;47.072;15.452;2022-11-15T14:09:38;14.10;71.60
2783;DHT22;1399;47.072;15.452;2022-11-15T14:12:31;14.00;71.60
2783;DHT22;1399;47.072;15.452;2022-11-15T14:14:59;14.00;71.70
2783;DHT22;1399;47.072;15.452;2022-11-15T14:19:54;14.00;71.80
2783;DHT22;1399;47.072;15.452;2022-11-15T14:22:24;14.00;71.90
2783;DHT22;1399;47.072;15.452;2022-11-15T14:27:38;14.00;71.80
2783;DHT22;1399;47.072;15.452;2022-11-15T14:30:05;14.00;71.80
2783;DHT22;1399;47.072;15.452;2022-11-15T14:32:45;14.00;71.70
2783;DHT22;1399;47.072;15.452;2022-11-15T14:35:18;13.90;71.60
2783;DHT22;1399;47.072;15.452;2022-11-15T14:37:45;13.90;71.60
2783;DHT22;1399;47.072;15.452;2022-11-15T14:40:16;13.90;71.60
2783;DHT22;1399;47.072;15.452;2022-11-15T14:42:44;13.90;71.70
2783;DHT22;1399;47.072;15.452;2022-11-15T14:45:21;13.90;71.70
2783;DHT22;1399;47.072;15.452;2022-11-15T14:47:47;13.90;71.70
2783;DHT22;1399;47.072;15.452;2022-11-15T14:50:16;13.90;71.70
2783;DHT22;1399;47.072;15.452;2022-11-15T14:52:42;13.90;71.70
2783;DHT22;1399;47.072;15.452;2022-11-15T14:55:22;13.90;71.80
2783;DHT22;1399;47.072;15.452;2022-11-15T14:57:49;13.80;71.60
2783;DHT22;1399;47.072;15.452;2022-11-15T15:00:15;13.80;71.60
2783;DHT22;1399;47.072;15.452;2022-11-15T15:02:42;13.80;71.70
2783;DHT22;1399;47.072;15.452;2022-11-15T15:05:26;13.80;71.70
2783;DHT22;1399;47.072;15.452;2022-11-15T15:07:52;13.80;71.70
2783;DHT22;1399;47.072;15.452;2022-11-15T15:10:19;13.80;71.70
2783;DHT22;1399;47.072;15.452;2022-11-15T15:12:45;13.80;71.70
2783;DHT22;1399;47.072;15.452;2022-11-15T15:15:24;13.80;71.70
2783;DHT22;1399;47.072;15.452;2022-11-15T15:17:50;13.80;71.70
2783;DHT22;1399;47.072;15.452;2022-11-15T15:20:16;13.80;71.80
2783;DHT22;1399;47.072;15.452;2022-11-15T15:22:42;13.80;71.80
2783;DHT22;1399;47.072;15.452;2022-11-15T15:25:22;13.80;71.80
2783;DHT22;1399;47.072;15.452;2022-11-15T15:27:48;13.70;71.70
2783;DHT22;1399;47.072;15.452;2022-11-15T15:30:14;13.70;71.70
2783;DHT22;1399;47.072;15.452;2022-11-15T15:32:39;13.70;71.70
2783;DHT22;1399;47.072;15.452;2022-11-15T15:35:05;13.80;71.90
2783;DHT22;1399;47.072;15.452;2022-11-15T15:37:31;13.70;71.80
2783;DHT22;1399;47.072;15.452;2022-11-15T15:39:59;13.70;71.70
2783;DHT22;1399;47.072;15.452;2022-11-15T15:42:25;13.70;71.70
2783;DHT22;1399;47.072;15.452;2022-11-15T15:44:51;13.80;71.90
2783;DHT22;1399;47.072;15.452;2022-11-15T15:47:22;13.70;71.80
2783;DHT22;1399;47.072;15.452;2022-11-15T15:49:49;13.70;71.70
2783;DHT22;1399;47.072;15.452;2022-11-15T15:52:16;13.70;71.70
2783;DHT22;1399;47.072;15.452;2022-11-15T15:54:41;13.70;71.70
2783;DHT22;1399;47.072;15.452;2022-11-15T15:57:08;13.70;71.70
2783;DHT22;1399;47.072;15.452;2022-11-15T15:59:36;13.70;71.60
2783;DHT22;1399;47.072;15.452;2022-11-15T16:02:02;13.70;71.60
2783;DHT22;1399;47.072;15.452;2022-11-15T16:04:28;13.60;72.40
2783;DHT22;1399;47.072;15.452;2022-11-15T16:06:58;13.70;71.60
2783;DHT22;1399;47.072;15.452;2022-11-15T16:09:24;13.70;71.60
2783;DHT22;1399;47.072;15.452;2022-11-15T16:12:19;13.60;71.50
2783;DHT22;1399;47.072;15.452;2022-11-15T16:14:45;13.60;71.40
2783;DHT22;1399;47.072;15.452;2022-11-15T16:17:19;13.60;71.40
2783;DHT22;1399;47.072;15.452;2022-11-15T16:19:45;13.70;71.50
2783;DHT22;1399;47.072;15.452;2022-11-15T16:22:11;13.70;71.50
2783;DHT22;1399;47.072;15.452;2022-11-15T16:24:37;13.70;71.50
2783;DHT22;1399;47.072;15.452;2022-11-15T16:27:03;13.60;71.30
2783;DHT22;1399;47.072;15.452;2022-11-15T16:29:29;13.60;71.30
2783;DHT22;1399;47.072;15.452;2022-11-15T16:31:55;13.60;71.30
2783;DHT22;1399;47.072;15.452;2022-11-15T16:34:21;13.60;71.30
2783;DHT22;1399;47.072;15.452;2022-11-15T16:36:47;13.60;71.30
2783;DHT22;1399;47.072;15.452;2022-11-15T16:39:14;13.60;71.30
2783;DHT22;1399;47.072;15.452;2022-11-15T16:41:42;13.60;71.30
2783;DHT22;1399;47.072;15.452;2022-11-15T16:44:15;13.60;71.20
2783;DHT22;1399;47.072;15.452;2022-11-15T16:46:43;13.60;71.30
2783;DHT22;1399;47.072;15.452;2022-11-15T16:49:13;13.60;71.30
2783;DHT22;1399;47.072;15.452;2022-11-15T16:51:40;13.60;71.20
2783;DHT22;1399;47.072;15.452;2022-11-15T16:54:06;13.60;71.20
2783;DHT22;1399;47.072;15.452;2022-11-15T16:56:32;13.60;71.30
2783;DHT22;1399;47.072;15.452;2022-11-15T16:59:00;13.60;71.20
2783;DHT22;1399;47.072;15.452;2022-11-15T17:01:37;13.60;71.20
2783;DHT22;1399;47.072;15.452;2022-11-15T17:04:12;13.60;71.20
2783;DHT22;1399;47.072;15.452;2022-11-15T17:06:39;13.60;71.20
2783;DHT22;1399;47.072;15.452;2022-11-15T17:09:07;13.60;71.20
2783;DHT22;1399;47.072;15.452;2022-11-15T17:11:36;13.60;71.20
2783;DHT22;1399;47.072;15.452;2022-11-15T17:14:02;13.50;71.00
2783;DHT22;1399;47.072;15.452;2022-11-15T17:16:28;13.60;71.20
2783;DHT22;1399;47.072;15.452;2022-11-15T17:18:54;13.60;71.20
2783;DHT22;1399;47.072;15.452;2022-11-15T17:21:20;13.50;71.10
2783;DHT22;1399;47.072;15.452;2022-11-15T17:23:47;13.50;71.10
2783;DHT22;1399;47.072;15.452;2022-11-15T17:26:15;13.50;71.10
2783;DHT22;1399;47.072;15.452;2022-11-15T17:28:40;13.50;71.10
2783;DHT22;1399;47.072;15.452;2022-11-15T17:31:11;13.50;71.10
2783;DHT22;1399;47.072;15.452;2022-11-15T17:33:37;13.50;71.10
2783;DHT22;1399;47.072;15.452;2022-11-15T17:36:07;13.50;71.10
2783;DHT22;1399;47.072;15.452;2022-11-15T17:38:34;13.50;71.10
2783;DHT22;1399;47.072;15.452;2022-11-15T17:41:13;13.50;71.10
2783;DHT22;1399;47.072;15.452;2022-11-15T17:43:40;13.50;71.20
2783;DHT22;1399;47.072;15.452;2022-11-15T17:46:10;13.50;71.20
2783;DHT22;1399;47.072;15.452;2022-11-15T17:48:38;13.50;71.30
2783;DHT22;1399;47.072;15.452;2022-11-15T17:51:06;13.50;71.40
2783;DHT22;1399;47.072;15.452;2022-11-15T17:53:41;13.50;71.40
2783;DHT22;1399;47.072;15.452;2022-11-15T17:56:09;13.50;71.40
2783;DHT22;1399;47.072;15.452;2022-11-15T17:58:36;13.50;71.40
2783;DHT22;1399;47.072;15.452;2022-11-15T18:01:09;13.50;71.50